createdAt,value
2018-08-28T00:00:40.090Z,77.90
2018-08-28T00:05:43.092Z,79.00
2018-08-28T00:10:46.136Z,79.60
2018-08-28T00:15:49.104Z,81.00
2018-08-28T00:20:52.109Z,83.30
2018-08-28T00:25:55.142Z,81.30
2018-08-28T00:30:58.148Z,80.30
2018-08-28T00:36:01.253Z,79.80
2018-08-28T00:41:04.286Z,79.60
2018-08-28T00:46:07.447Z,79.10
2018-08-28T00:51:10.447Z,78.90
2018-08-28T00:56:13.422Z,79.80
2018-08-28T01:01:16.658Z,80.60
2018-08-28T01:06:19.672Z,79.30
2018-08-28T01:11:22.647Z,79.70
2018-08-28T01:16:25.868Z,80.50
2018-08-28T01:21:28.937Z,80.90
2018-08-28T01:26:31.932Z,81.20
2018-08-28T01:31:34.959Z,80.80
2018-08-28T01:36:37.905Z,80.50
2018-08-28T01:41:40.871Z,80.50
2018-08-28T01:46:43.937Z,80.10
2018-08-28T01:51:47.210Z,79.80
2018-08-28T01:56:50.238Z,78.80
2018-08-28T02:01:53.274Z,79.70
2018-08-28T02:06:56.291Z,79.70
2018-08-28T02:11:59.292Z,80.60
2018-08-28T02:17:02.578Z,80.00
2018-08-28T02:22:05.611Z,79.70
2018-08-28T02:27:08.630Z,79.80
2018-08-28T02:32:11.622Z,80.50
2018-08-28T02:37:14.691Z,81.90
2018-08-28T02:42:17.718Z,82.50
2018-08-28T02:47:20.795Z,82.50
2018-08-28T02:52:23.893Z,82.20
2018-08-28T02:57:26.879Z,81.90
2018-08-28T03:02:29.914Z,82.70
2018-08-28T03:07:32.936Z,83.30
2018-08-28T03:12:35.954Z,83.20
2018-08-28T03:17:39.061Z,83.30
2018-08-28T03:22:42.060Z,83.40
2018-08-28T03:27:45.248Z,82.90
2018-08-28T03:32:48.344Z,83.10
2018-08-28T03:37:51.385Z,82.10
2018-08-28T03:42:54.826Z,82.10
2018-08-28T03:47:57.889Z,80.00
2018-08-28T03:53:00.928Z,81.60
2018-08-28T03:58:03.984Z,82.90
2018-08-28T04:03:06.980Z,83.50
2018-08-28T04:08:10.091Z,83.10
2018-08-28T04:13:13.102Z,82.60
2018-08-28T04:18:16.189Z,81.90
2018-08-28T04:23:19.393Z,82.50
2018-08-28T04:28:22.419Z,82.40
2018-08-28T04:33:25.519Z,82.40
2018-08-28T04:38:28.712Z,82.70
2018-08-28T04:43:31.785Z,82.50
2018-08-28T04:48:34.918Z,82.50
2018-08-28T04:53:38.039Z,81.80
2018-08-28T04:58:41.081Z,80.90
2018-08-28T05:03:44.161Z,80.20
2018-08-28T05:08:47.301Z,79.20
2018-08-28T05:13:50.338Z,78.50
2018-08-28T05:18:53.354Z,75.60
2018-08-28T05:23:56.514Z,76.80
2018-08-28T05:28:59.795Z,74.90
2018-08-28T05:34:02.820Z,70.10
2018-08-28T05:39:06.845Z,66.30
2018-08-28T05:44:09.871Z,64.20
2018-08-28T05:49:12.892Z,62.50
2018-08-28T05:54:16.020Z,60.00
2018-08-28T05:59:19.166Z,60.20
2018-08-28T06:04:22.216Z,58.50
2018-08-28T06:09:25.132Z,56.20
2018-08-28T06:14:28.364Z,56.20
2018-08-28T06:19:31.356Z,54.30
2018-08-28T06:24:34.359Z,51.80
2018-08-28T06:29:37.708Z,49.70
2018-08-28T06:34:41.007Z,48.40
2018-08-28T06:39:44.190Z,49.70
2018-08-28T06:44:47.186Z,48.80
2018-08-28T06:49:50.143Z,49.30
2018-08-28T06:54:53.156Z,50.80
2018-08-28T06:59:56.443Z,52.40
2018-08-28T07:04:59.660Z,52.80
2018-08-28T07:10:02.675Z,48.60
2018-08-28T07:15:05.695Z,46.10
2018-08-28T07:20:08.896Z,44.30
2018-08-28T07:25:11.876Z,43.40
2018-08-28T07:30:14.894Z,43.90
2018-08-28T07:35:17.943Z,44.80
2018-08-28T07:40:20.970Z,42.80
2018-08-28T07:45:24.648Z,41.10
2018-08-28T07:50:27.620Z,41.90
2018-08-28T07:55:30.746Z,41.10
2018-08-28T08:00:33.728Z,41.60
2018-08-28T08:05:36.792Z,41.00
2018-08-28T08:10:39.788Z,38.10
2018-08-28T08:15:42.795Z,39.80
2018-08-28T08:20:45.755Z,40.90
2018-08-28T08:25:48.828Z,42.50
2018-08-28T08:30:52.004Z,41.50
2018-08-28T08:35:54.984Z,39.60
2018-08-28T08:40:58.101Z,39.20
2018-08-28T08:46:01.074Z,40.20
2018-08-28T08:51:04.102Z,39.70
2018-08-28T08:56:07.102Z,41.60
2018-08-28T09:01:10.193Z,43.10
2018-08-28T09:06:13.354Z,41.50
2018-08-28T09:11:16.660Z,41.80
2018-08-28T09:16:19.677Z,42.50
2018-08-28T09:21:22.870Z,42.50
2018-08-28T09:26:25.936Z,41.20
2018-08-28T09:31:29.004Z,40.40
2018-08-28T09:36:32.214Z,39.90
2018-08-28T09:41:35.363Z,40.60
2018-08-28T09:46:38.353Z,39.80
2018-08-28T09:51:41.386Z,39.10
2018-08-28T09:56:44.477Z,39.60
2018-08-28T10:01:47.547Z,40.40
2018-08-28T10:06:50.927Z,40.40
2018-08-28T10:11:53.911Z,41.10
2018-08-28T10:16:56.915Z,40.50
2018-08-28T10:21:59.938Z,40.70
2018-08-28T10:27:02.991Z,41.00
2018-08-28T10:32:06.208Z,40.20
2018-08-28T10:37:09.196Z,42.90
2018-08-28T10:42:12.320Z,44.00
2018-08-28T10:47:15.372Z,44.80
2018-08-28T10:52:18.470Z,44.20
2018-08-28T10:57:21.479Z,44.50
2018-08-28T11:02:24.513Z,43.20
2018-08-28T11:07:27.703Z,43.50
2018-08-28T11:12:30.846Z,42.80
2018-08-28T11:17:33.882Z,42.70
2018-08-28T11:22:36.972Z,43.20
2018-08-28T11:27:40.066Z,43.60
2018-08-28T11:32:43.118Z,43.70
2018-08-28T11:37:46.165Z,44.20
2018-08-28T11:42:49.146Z,43.40
2018-08-28T11:47:52.283Z,42.40
2018-08-28T11:52:55.276Z,42.40
2018-08-28T11:57:58.312Z,41.80
2018-08-28T12:03:01.350Z,41.40
2018-08-28T12:08:04.601Z,41.80
2018-08-28T12:13:07.650Z,41.70
2018-08-28T12:18:10.824Z,42.00
2018-08-28T12:23:13.922Z,41.50
2018-08-28T12:28:17.021Z,42.40
2018-08-28T12:33:20.056Z,41.10
2018-08-28T12:38:23.084Z,40.70
2018-08-28T12:43:26.125Z,41.60
2018-08-28T12:48:29.244Z,41.20
2018-08-28T12:53:32.290Z,40.50
2018-08-28T12:58:35.364Z,39.30
2018-08-28T13:03:38.525Z,38.70
2018-08-28T13:08:41.566Z,38.90
2018-08-28T13:13:44.648Z,38.90
2018-08-28T13:18:47.628Z,38.20
2018-08-28T13:23:50.750Z,38.30
2018-08-28T13:28:54.007Z,38.30
2018-08-28T13:33:57.052Z,38.00
2018-08-28T13:39:00.092Z,38.80
2018-08-28T13:44:03.137Z,38.60
2018-08-28T13:49:06.233Z,38.50
2018-08-28T13:54:09.253Z,38.50
2018-08-28T13:59:12.551Z,37.90
2018-08-28T14:04:15.656Z,38.40
2018-08-28T14:09:18.660Z,39.00
2018-08-28T14:14:21.645Z,38.60
2018-08-28T14:19:24.714Z,38.60
2018-08-28T14:24:27.791Z,38.10
2018-08-28T14:29:31.028Z,38.00
2018-08-28T14:34:33.959Z,38.10
2018-08-28T14:39:37.004Z,37.30
2018-08-28T14:44:40.149Z,36.80
2018-08-28T14:49:43.141Z,37.20
2018-08-28T14:54:46.092Z,37.10
2018-08-28T14:59:49.416Z,37.00
2018-08-28T15:04:52.474Z,36.80
2018-08-28T15:09:55.461Z,37.70
2018-08-28T15:14:58.484Z,36.80
2018-08-28T15:20:01.649Z,37.00
2018-08-28T15:25:07.363Z,38.70
2018-08-28T15:30:10.467Z,36.90
2018-08-28T15:35:13.616Z,37.30
2018-08-28T15:40:16.850Z,36.30
2018-08-28T15:45:19.985Z,36.20
2018-08-28T15:50:23.636Z,36.20
2018-08-28T15:55:26.711Z,37.70
2018-08-28T16:00:29.773Z,37.50
2018-08-28T16:05:32.809Z,37.70
2018-08-28T16:10:35.899Z,37.00
2018-08-28T16:15:38.879Z,36.80
2018-08-28T16:20:41.991Z,36.60
2018-08-28T16:25:45.162Z,36.70
2018-08-28T16:30:48.194Z,37.80
2018-08-28T16:35:51.508Z,37.50
2018-08-28T16:40:54.473Z,37.40
2018-08-28T16:45:57.537Z,38.00
2018-08-28T16:51:00.465Z,38.70
2018-08-28T16:56:03.429Z,38.10
2018-08-28T17:01:06.505Z,40.00
2018-08-28T17:06:09.545Z,39.70
2018-08-28T17:11:12.660Z,39.60
2018-08-28T17:16:15.624Z,41.90
2018-08-28T17:21:18.732Z,40.30
2018-08-28T17:26:22.543Z,39.60
2018-08-28T17:31:25.502Z,40.00
2018-08-28T17:36:28.509Z,40.30
2018-08-28T17:41:31.508Z,40.50
2018-08-28T17:46:34.456Z,41.00
2018-08-28T17:51:37.535Z,41.10
2018-08-28T17:56:40.458Z,41.50
2018-08-28T18:01:43.699Z,42.10
2018-08-28T18:06:46.723Z,44.10
2018-08-28T18:11:49.832Z,45.30
2018-08-28T18:16:52.999Z,46.30
2018-08-28T18:21:56.352Z,47.50
2018-08-28T18:26:59.210Z,47.70
2018-08-28T18:32:02.411Z,47.90
2018-08-28T18:37:05.763Z,48.10
2018-08-28T18:42:08.992Z,48.00
2018-08-28T18:47:12.274Z,48.20
2018-08-28T18:52:15.243Z,48.60
2018-08-28T18:57:18.228Z,49.10
2018-08-28T19:02:21.472Z,49.90
2018-08-28T19:07:24.697Z,50.00
2018-08-28T19:12:27.672Z,50.30
2018-08-28T19:17:30.892Z,50.90
2018-08-28T19:22:33.823Z,51.20
2018-08-28T19:27:37.018Z,51.70
2018-08-28T19:32:40.125Z,51.80
2018-08-28T19:37:43.335Z,51.80
2018-08-28T19:42:46.533Z,52.00
2018-08-28T19:47:49.653Z,52.10
2018-08-28T19:52:52.759Z,52.30
2018-08-28T19:57:55.857Z,52.30
2018-08-28T20:02:59.063Z,52.30
2018-08-28T20:08:02.283Z,52.60
2018-08-28T20:13:05.235Z,52.90
2018-08-28T20:18:08.161Z,53.70
2018-08-28T20:23:11.383Z,55.40
2018-08-28T20:28:14.717Z,55.70
2018-08-28T20:33:17.810Z,56.50
2018-08-28T20:38:21.030Z,57.50
2018-08-28T20:43:24.219Z,57.00
2018-08-28T20:48:27.235Z,57.30
2018-08-28T20:53:30.571Z,57.50
2018-08-28T20:58:33.747Z,58.10
2018-08-28T21:03:36.971Z,58.50
2018-08-28T21:08:39.997Z,58.90
2018-08-28T21:13:43.806Z,58.90
2018-08-28T21:18:46.928Z,58.40
2018-08-28T21:23:50.250Z,59.70
2018-08-28T21:28:53.435Z,60.60
2018-08-28T21:33:56.629Z,60.70
2018-08-28T21:38:59.856Z,61.10
2018-08-28T21:44:03.260Z,62.00
2018-08-28T21:49:10.161Z,62.60
2018-08-28T21:54:13.216Z,63.20
2018-08-28T21:59:16.388Z,64.10
2018-08-28T22:04:19.423Z,64.30
2018-08-28T22:09:22.603Z,65.00
2018-08-28T22:14:25.781Z,65.00
2018-08-28T22:19:29.023Z,64.60
2018-08-28T22:35:36.387Z,63.00
2018-08-28T22:40:39.352Z,62.60
2018-08-28T22:45:42.441Z,62.80
2018-08-28T22:50:45.989Z,63.20
2018-08-28T22:55:49.139Z,62.40
2018-08-28T23:00:52.322Z,62.50
2018-08-28T23:05:55.275Z,62.80
2018-08-28T23:10:58.372Z,61.20
2018-08-28T23:16:01.576Z,61.70
2018-08-28T23:21:04.724Z,61.70
2018-08-28T23:26:07.881Z,62.00
2018-08-28T23:31:10.813Z,62.20
2018-08-28T23:36:13.924Z,62.70
2018-08-28T23:41:17.152Z,62.20
2018-08-28T23:46:20.144Z,62.60
2018-08-28T23:51:23.244Z,63.00
2018-08-28T23:56:26.389Z,63.50
